Latest Weather Observations for Paraburdoo

IDW60801

Issued at 4:04 pm WST Monday 25 September 2017 (issued every 30 minutes, with the page automatically refreshed every 10 minutes)

About weather observations | Map of weather stations | Latest weather observations for WA | Other Formats
Station Details ID: 007185 Name: PARABURDOO AERO Lat: -23.17 Lon: 117.75 Height: 423.7 m
Data from the previous 72 hours. | See also: Recent months at Paraburdoo
Date/Time
WST
Temp
°C
App
Temp
°C
Dew
Point
°C
Rel
Hum
%
Delta-T
°C
Wind Press
QNH
hPa
Press
MSL
hPa
Rain since
9am
mm
Dir  Spd
km/h
Gust
km/h
Spd
kts
Gust
kts
25/04:00pm 23.0 16.4 5.9 33 8.9 W 30 43 16 23 1009.9 1008.0 0.0
25/03:30pm 23.3 16.6 5.7 32 9.1 W 30 43 16 23 1010.0 1008.1 0.0
25/03:00pm 23.8 17.6 6.1 32 9.2 W 28 48 15 26 1010.1 1008.2 0.0
25/02:30pm 24.2 18.2 6.9 33 9.2 WNW 28 46 15 25 1010.4 1008.5 0.0
25/02:00pm 24.0 18.7 6.7 33 9.1 WNW 24 39 13 21 1010.8 1008.9 0.0
25/01:30pm 23.3 17.1 7.8 37 8.3 W 30 41 16 22 1011.3 1009.3 0.0
25/01:00pm 22.8 17.5 8.5 40 7.7 W 26 41 14 22 1011.6 1009.6 0.0
25/12:30pm 21.4 16.3 9.3 46 6.6 W 26 41 14 22 1012.0 1010.1 0.0
25/12:00pm 20.5 14.2 8.8 47 6.3 W 32 44 17 24 1012.4 1010.5 0.0
25/11:30am 21.0 15.7 8.3 44 6.8 WNW 26 39 14 21 1012.7 1010.8 0.0
25/11:00am 21.6 16.4 8.8 44 6.9 W 26 35 14 19 1012.9 1011.0 0.0
25/10:30am 20.7 15.5 9.0 47 6.3 W 26 39 14 21 1013.2 1011.3 0.0
25/10:00am 19.9 14.3 8.9 49 5.9 W 28 35 15 19 1013.4 1011.5 0.0
25/09:30am 19.1 14.0 9.3 53 5.3 WNW 26 39 14 21 1013.8 1011.8 0.0
25/09:00am 18.6 13.6 9.7 56 4.8 W 26 33 14 18 1013.8 1011.8 0.0
25/08:30am 17.4 12.4 9.6 60 4.2 W 26 35 14 19 1013.8 1011.8 0.0
25/08:00am 17.3 12.8 10.2 63 3.8 WNW 24 33 13 18 1013.8 1011.8 0.0
25/07:30am 16.6 12.9 10.2 66 3.5 WNW 20 28 11 15 1013.7 1011.7 0.0
25/07:00am 16.3 13.4 9.7 65 3.5 WNW 15 17 8 9 1013.3 1011.4 0.0
25/06:30am 15.7 13.4 9.1 65 3.5 WNW 11 13 6 7 1012.9 1011.0 0.0
25/06:00am 15.1 12.4 9.0 67 3.2 NW 13 15 7 8 1012.7 1010.8 0.0
25/05:30am 15.4 13.1 9.1 66 3.3 NW 11 15 6 8 1012.5 1010.6 0.0
25/05:00am 15.9 12.5 9.1 64 3.6 WNW 17 22 9 12 1012.3 1010.4 0.0
25/04:30am 16.3 12.4 8.8 61 3.9 W 19 26 10 14 1012.0 1010.1 0.0
25/04:00am 16.7 12.9 8.9 60 4.1 WNW 19 26 10 14 1011.7 1009.7 0.0
25/03:30am 17.2 12.8 8.9 58 4.4 WNW 22 32 12 17 1011.5 1009.5 0.0
25/03:00am 17.6 14.1 8.7 56 4.7 WNW 17 26 9 14 1011.6 1009.6 0.0
25/02:30am 17.9 13.1 8.7 55 4.9 W 24 32 13 17 1011.7 1009.7 0.0
25/02:00am 18.5 12.8 8.5 52 5.3 W 28 35 15 19 1011.6 1009.6 0.0
25/01:30am 19.1 13.8 8.4 50 5.7 W 26 33 14 18 1011.4 1009.4 0.0
25/01:00am 19.3 14.4 8.6 50 5.7 W 24 33 13 18 1011.3 1009.3 0.0
25/12:30am 19.6 14.7 8.6 49 5.9 WNW 24 32 13 17 1011.2 1009.2 0.0
25/12:00am 19.7 15.2 8.4 48 6.0 W 22 33 12 18 1011.2 1009.2 0.0
 
Date/Time
WST
Temp
°C
App
Temp
°C
Dew
Point
°C
Rel
Hum
%
Delta-T
°C
Wind Press
QNH
hPa
Press
MSL
hPa
Rain since
9am
mm
Dir  Spd
km/h
Gust
km/h
Spd
kts
Gust
kts
24/11:30pm 19.9 15.5 7.6 45 6.4 WNW 20 30 11 16 1011.3 1009.3 0.0
24/11:00pm 19.9 15.1 7.3 44 6.6 W 22 32 12 17 1011.3 1009.3 0.0
24/10:30pm 20.4 15.5 7.1 42 6.9 W 22 28 12 15 1011.3 1009.3 0.0
24/10:00pm 20.9 16.0 6.8 40 7.3 W 22 28 12 15 1011.5 1009.5 0.0
24/09:30pm 21.3 16.3 6.4 38 7.7 W 22 28 12 15 1011.5 1009.5 0.0
24/09:00pm 21.5 16.8 6.2 37 7.9 W 20 26 11 14 1011.3 1009.3 0.0
24/08:30pm 21.8 17.1 6.1 36 8.1 W 20 26 11 14 1011.0 1009.1 0.0
24/08:00pm 22.2 17.6 5.6 34 8.5 W 19 26 10 14 1010.8 1008.9 0.0
24/07:30pm 22.6 17.0 5.5 33 8.8 W 24 28 13 15 1010.5 1008.6 0.0
24/07:00pm 23.1 18.2 5.1 31 9.2 W 20 28 11 15 1010.4 1008.5 0.0
24/06:30pm 23.6 18.3 5.0 30 9.5 W 22 28 12 15 1010.1 1008.2 0.0
24/06:00pm 24.0 19.1 4.9 29 9.8 W 20 26 11 14 1010.0 1008.1 0.0
24/05:30pm 24.7 18.5 4.5 27 10.3 W 26 37 14 20 1009.9 1008.0 0.0
24/05:00pm 25.3 19.5 4.4 26 10.7 W 24 37 13 20 1009.8 1007.9 0.0
24/04:30pm 25.3 18.7 4.4 26 10.7 WNW 28 35 15 19 1009.7 1007.7 0.0
24/04:00pm 25.6 19.4 4.1 25 11.0 W 26 37 14 20 1009.9 1008.0 0.0
24/03:30pm 25.3 19.5 4.4 26 10.7 WSW 24 39 13 21 1010.0 1008.1 0.0
24/03:00pm 25.5 20.2 5.1 27 10.6 W 22 39 12 21 1010.2 1008.3 0.0
24/02:30pm 25.1 20.3 4.8 27 10.4 W 19 37 10 20 1010.6 1008.7 0.0
24/02:00pm 24.6 19.8 5.4 29 9.9 WNW 20 33 11 18 1010.8 1008.9 0.0
24/01:30pm 23.8 19.6 5.7 31 9.4 WSW 17 32 9 17 1011.3 1009.3 0.0
24/01:00pm 23.6 18.7 5.0 30 9.5 W 20 35 11 19 1011.6 1009.6 0.0
24/12:30pm 23.6 19.1 6.0 32 9.1 WNW 19 33 10 18 1012.0 1010.1 0.0
24/12:00pm 22.7 18.1 5.6 33 8.8 WSW 19 33 10 18 1012.5 1010.6 0.0
24/11:30am 21.4 17.2 5.7 36 8.0 W 17 32 9 17 1013.0 1011.1 0.0
24/11:00am 21.3 17.2 6.4 38 7.7 W 17 26 9 14 1013.4 1011.5 0.0
24/10:30am 20.1 16.9 6.8 42 6.9 WNW 13 28 7 15 1013.8 1011.8 0.0
24/10:00am 19.8 17.2 6.2 41 6.9 W 9 24 5 13 1014.3 1012.4 0.0
24/09:30am 19.1 15.6 7.2 46 6.2 WSW 15 28 8 15 1014.6 1012.7 0.0
24/09:00am 18.5 14.2 7.0 47 5.9 WSW 19 26 10 14 1014.7 1012.8 0.0
24/08:30am 17.6 13.8 7.4 51 5.2 WSW 17 24 9 13 1014.7 1012.8 0.0
24/08:00am 17.3 13.1 7.4 52 5.1 SW 19 26 10 14 1014.7 1012.8 0.0
24/07:30am 16.9 13.2 7.8 55 4.7 WSW 17 22 9 12 1014.6 1012.7 0.0
24/07:00am 16.0 12.6 7.7 58 4.2 WSW 15 20 8 11 1014.2 1012.3 0.0
24/06:30am 15.2 12.5 7.5 60 3.9 WSW 11 13 6 7 1014.0 1012.0 0.0
24/06:00am 15.0 11.9 7.3 60 3.9 WSW 13 15 7 8 1013.9 1011.9 0.0
24/05:30am 15.4 12.3 7.2 58 4.1 WSW 13 15 7 8 1013.7 1011.7 0.0
24/05:00am 15.7 12.1 6.7 55 4.5 WSW 15 20 8 11 1013.4 1011.5 0.0
24/04:30am 16.3 12.2 6.4 52 4.9 WSW 17 20 9 11 1013.2 1011.3 0.0
24/04:00am 16.8 12.1 5.1 46 5.7 WSW 19 22 10 12 1012.9 1011.0 0.0
24/03:30am 16.7 12.6 4.1 43 6.0 W 15 19 8 10 1012.7 1010.8 0.0
24/03:00am 15.1 11.9 3.0 44 5.6 W 9 13 5 7 1012.6 1010.7 0.0
24/02:30am 13.4 11.8 2.3 47 5.0 CALM 0 0 0 0 1012.4 1010.5 0.0
24/02:00am 13.6 12.0 2.2 46 5.1 CALM 0 0 0 0 1012.6 1010.7 0.0
24/01:30am 14.0 11.9 2.0 44 5.4 NW 2 6 1 3 1012.9 1011.0 0.0
24/01:00am 16.0 13.1 2.4 40 6.2 NW 7 9 4 5 1013.1 1011.2 0.0
24/12:30am 17.4 14.1 2.6 37 6.9 NW 9 11 5 6 1013.2 1011.3 0.0
24/12:00am 18.2 15.4 2.9 36 7.2 WNW 7 7 4 4 1013.4 1011.5 0.0
 
Date/Time
WST
Temp
°C
App
Temp
°C
Dew
Point
°C
Rel
Hum
%
Delta-T
°C
Wind Press
QNH
hPa
Press
MSL
hPa
Rain since
9am
mm
Dir  Spd
km/h
Gust
km/h
Spd
kts
Gust
kts
23/11:30pm 18.8 15.5 2.6 34 7.6 W 9 9 5 5 1013.7 1011.7 0.0
23/11:00pm 19.7 16.4 2.6 32 8.1 WSW 9 11 5 6 1013.7 1011.7 0.0
23/10:30pm 20.5 17.0 3.3 32 8.3 W 11 13 6 7 1013.8 1011.8 0.0
23/10:00pm 20.6 17.2 4.2 34 8.1 W 11 13 6 7 1013.8 1011.8 0.0
23/09:30pm 21.3 18.0 4.4 33 8.4 WSW 11 15 6 8 1013.9 1011.9 0.0
23/09:00pm 22.0 19.1 4.6 32 8.7 WSW 9 11 5 6 1013.7 1011.7 0.0
23/08:30pm 22.7 19.0 4.7 31 9.1 WSW 13 17 7 9 1013.7 1011.7 0.0
23/08:00pm 22.6 19.3 4.6 31 9.1 W 11 13 6 7 1013.6 1011.6 0.0
23/07:30pm 23.7 20.0 4.6 29 9.7 WSW 13 15 7 8 1013.3 1011.4 0.0
23/07:00pm 24.2 20.6 5.1 29 9.8 WSW 13 20 7 11 1012.9 1011.0 0.0
23/06:30pm 24.8 20.1 5.1 28 10.2 WSW 19 24 10 13 1012.7 1010.8 0.0
23/06:00pm 25.3 20.9 5.0 27 10.5 WSW 17 20 9 11 1012.6 1010.7 0.0
23/05:30pm 26.0 21.6 5.0 26 10.9 WSW 17 22 9 12 1012.4 1010.5 0.0
23/05:00pm 27.0 22.2 4.7 24 11.6 WSW 19 30 10 16 1012.4 1010.5 0.0
23/04:30pm 27.0 21.5 4.1 23 11.7 WSW 22 32 12 17 1012.4 1010.5 0.0
23/04:00pm 27.3 21.5 4.4 23 11.8 WSW 24 32 13 17 1012.2 1010.3 0.0
23/03:30pm 27.4 22.0 4.5 23 11.9 W 22 35 12 19 1012.4 1010.5 0.0
23/03:00pm 26.8 21.5 5.1 25 11.3 WSW 22 30 12 16 1012.7 1010.8 0.0
23/02:30pm 26.7 22.7 5.1 25 11.3 W 15 28 8 15 1013.0 1011.1 0.0
23/02:00pm 26.1 22.3 5.7 27 10.7 WSW 15 28 8 15 1013.3 1011.4 0.0
23/01:30pm 25.5 20.9 5.7 28 10.4 WSW 19 30 10 16 1013.9 1011.9 0.0
23/01:00pm 25.6 22.3 6.3 29 10.2 NW 13 26 7 14 1014.5 1012.6 0.0
23/12:30pm 24.5 20.4 6.3 31 9.6 SW 17 28 9 15 1014.9 1013.0 0.0
23/12:00pm 23.6 20.2 6.0 32 9.1 WSW 13 22 7 12 1015.5 1013.6 0.0
23/11:30am 22.7 19.5 6.9 36 8.3 WSW 13 28 7 15 1015.9 1014.0 0.0
23/11:00am 22.3 18.6 6.5 36 8.2 WNW 15 24 8 13 1016.4 1014.5 0.0
23/10:30am 21.8 18.2 6.9 38 7.8 WSW 15 24 8 13 1016.6 1014.7 0.0
23/10:00am 20.9 18.2 7.5 42 7.0 SW 11 17 6 9 1017.0 1015.1 0.0
23/09:30am 19.8 17.5 7.5 45 6.4 SW 9 19 5 10 1017.0 1015.1 0.0
23/09:00am 20.0 18.1 7.7 45 6.4 S 7 15 4 8 1017.0 1015.1 0.0
23/08:30am 19.1 16.8 7.5 47 6.0 SW 9 17 5 9 1017.1 1015.2 0.0
23/08:00am 18.6 15.9 7.4 48 5.8 WSW 11 15 6 8 1016.9 1015.0 0.0
23/07:30am 18.1 17.1 7.5 50 5.5 W 2 9 1 5 1016.7 1014.8 0.0
23/07:00am 17.1 16.5 7.5 53 4.9 CALM 0 6 0 3 1016.3 1014.4 0.0
23/06:30am 16.3 14.4 7.5 56 4.5 WSW 7 9 4 5 1016.2 1014.3 0.0
23/06:00am 16.2 13.5 7.4 56 4.5 SW 11 15 6 8 1015.8 1013.9 0.0
23/05:30am 16.6 13.9 7.5 55 4.7 SW 11 13 6 7 1015.5 1013.6 0.0
23/05:00am 16.9 14.6 7.5 54 4.8 SW 9 11 5 6 1015.3 1013.4 0.0
23/04:30am 17.3 15.0 7.6 53 5.0 SW 9 15 5 8 1015.0 1013.1 0.0
23/04:00am 17.9 14.9 7.9 52 5.2 SW 13 15 7 8 1014.7 1012.8 0.0
23/03:30am 18.3 15.4 8.3 52 5.3 SW 13 22 7 12 1014.5 1012.6 0.0
23/03:00am 18.5 16.1 8.7 53 5.2 SW 11 17 6 9 1014.4 1012.5 0.0
23/02:30am 18.8 16.5 9.0 53 5.2 SW 11 15 6 8 1014.4 1012.5 0.0
23/02:00am 19.5 17.3 9.4 52 5.5 WSW 11 13 6 7 1014.6 1012.7 0.0
23/01:30am 20.2 16.9 9.7 51 5.7 WSW 17 20 9 11 1014.7 1012.8 0.0
23/01:00am 20.9 17.7 10.1 50 6.0 WSW 17 20 9 11 1014.9 1013.0 0.0
23/12:30am 21.5 17.4 10.0 48 6.4 WSW 22 26 12 14 1014.9 1013.0 0.0
23/12:00am 22.1 18.7 10.6 48 6.4 WSW 19 26 10 14 1014.9 1013.0 0.0
 
Date/Time
WST
Temp
°C
App
Temp
°C
Dew
Point
°C
Rel
Hum
%
Delta-T
°C
Wind Press
QNH
hPa
Press
MSL
hPa
Rain since
9am
mm
Dir  Spd
km/h
Gust
km/h
Spd
kts
Gust
kts
22/11:30pm 22.7 18.8 10.8 47 6.7 WSW 22 30 12 16 1015.0 1013.1 0.0
22/11:00pm 23.4 19.2 11.1 46 7.0 WSW 24 32 13 17 1015.0 1013.1 0.0
22/10:30pm 24.2 20.3 10.8 43 7.6 WSW 22 32 12 17 1014.8 1012.9 0.0
22/10:00pm 25.1 20.6 10.2 39 8.4 WSW 24 33 13 18 1014.7 1012.8 0.0
22/09:30pm 25.6 20.8 9.0 35 9.2 WSW 24 32 13 17 1014.6 1012.7 0.0
22/09:00pm 26.3 20.5 7.8 31 10.1 W 28 37 15 20 1014.4 1012.5 0.0
22/08:30pm 26.8 21.1 6.8 28 10.7 W 26 33 14 18 1014.2 1012.3 0.0
22/08:00pm 27.1 22.5 6.5 27 11.0 W 20 28 11 15 1013.7 1011.7 0.0
22/07:30pm 27.6 22.1 5.8 25 11.6 W 24 32 13 17 1013.3 1011.4 0.0
22/07:00pm 28.2 21.9 3.8 21 12.6 W 26 33 14 18 1013.1 1011.2 0.0
22/06:30pm 28.5 21.2 2.7 19 13.0 W 30 41 16 22 1012.7 1010.8 0.0
22/06:00pm 29.2 22.5 1.7 17 13.7 W 26 35 14 19 1012.5 1010.6 0.0
22/05:30pm 30.1 22.3 1.5 16 14.3 W 32 43 17 23 1012.3 1010.4 0.0
22/05:00pm 31.1 22.5 0.5 14 15.2 W 35 43 19 23 1012.0 1010.1 0.0
22/04:35pm 31.4 24.5 2.6 16 14.8 WNW 28 46 15 25 1012.0 1010.1 0.0
22/04:30pm 31.6 24.3 2.7 16 14.9 W 30 43 16 23 1011.9 1009.9 0.0

Other Formats:

Comma delimited format used in spreadsheet applications
http://www.bom.gov.au/fwo/IDW60801/IDW60801.94316.axf

JavaScript Object Notation format (JSON) in row-major order
http://www.bom.gov.au/fwo/IDW60801/IDW60801.94316.json